Terminal Aerodrome Forecast
Issued by NWS

Home | Current Version | Previous Version | Text Only | Print | Product List | Glossary On
Versions: 1 2 3 4 5 6 7 8 9 10 11 12 13
000
FTUS45 KTFX 202300
TAFBZN
TAF
KBZN 202324Z 2100/2124 VRB06KT P6SM SCT040 BKN060
     FM210600 20007KT P6SM VCSH OVC040
     FM211000 20007KT P6SM -SHSN OVC030
      TEMPO 2110/2114 2SM -SN SCT010 OVC020
     FM211800 24006KT P6SM VCSH SCT015 BKN040=

USA.gov is the U.S. government's official web portal to all federal, state and local government web resources and services.